»·PEaware :: SWA2766 KSFO-KSAN

SWA2766 :: KSFO-KSAN

FLIGHT INFORMATION

Flight Status: Arrived
Operator:
Southwest Airlines
More flights by this operator :: More flights under this callsign
Pilot: Sebastião J. (17445)
Aircraft: BOEING 737-800
(B738)
More flights by this aircraft type
Origin: KSFO San Francisco Intl
United States
Destination: KSAN San Diego Intl-Lindbergh
United States
More flights between these airports :: More routes between these airports
Route: +OFFSH1 MCKEY LAX COMIX1
File this flight plan on PilotEdge
Remarks:
Altitude:
(Current/Filed)
370ft
Speed:
(Current/Filed)
450kts
Departed: 15-Apr-18 02:25 PM
Arrived: 15-Apr-18 03:38 PM
Distance/Time
Traveled:
387nm/1:13
Distance/Time
To Go:
Arrived

Flight Plot

Page will automatically refresh every two minutes.

Flight plan parsing failed; only flown route is shown


Map Options




Map Legend


Flown Route
Filed Route
Departure Airport
Arrival Airport
Navaid (VOR, NDB)
Fix

Horizontal Profiles

Position Reports

Time Latitude Longitude Heading Altitude Ground
Speed
15-Apr-18 13:27 37.613207 -122.383180 261 20ft 0kts
15-Apr-18 13:28 37.613207 -122.383180 261 20ft 0kts
15-Apr-18 13:29 37.613207 -122.383180 261 20ft 0kts
15-Apr-18 13:30 37.613207 -122.383180 261 20ft 0kts
15-Apr-18 13:31 37.613207 -122.383180 261 20ft 0kts
15-Apr-18 13:32 37.613207 -122.383180 261 20ft 0kts
15-Apr-18 13:33 37.613207 -122.383180 261 20ft 0kts
15-Apr-18 13:34 37.613207 -122.383180 261 20ft 0kts
15-Apr-18 13:35 37.613207 -122.383180 261 20ft 0kts
15-Apr-18 13:36 37.613207 -122.383180 261 20ft 0kts
15-Apr-18 13:37 37.613207 -122.383180 261 20ft 0kts
15-Apr-18 13:38 37.613207 -122.383180 261 20ft 0kts
15-Apr-18 13:39 37.613207 -122.383180 261 20ft 0kts
15-Apr-18 13:40 37.613207 -122.383180 261 20ft 0kts
15-Apr-18 13:41 37.613207 -122.383180 261 20ft 0kts
15-Apr-18 13:42 37.613207 -122.383180 261 20ft 0kts
15-Apr-18 13:43 37.613207 -122.383180 261 20ft 0kts
15-Apr-18 13:44 37.613207 -122.383180 261 20ft 0kts
15-Apr-18 13:45 37.613207 -122.383180 261 20ft 0kts
15-Apr-18 13:46 37.613207 -122.383180 261 20ft 0kts
15-Apr-18 13:47 37.613207 -122.383180 261 20ft 0kts
15-Apr-18 13:48 37.613207 -122.383180 261 20ft 0kts
15-Apr-18 13:49 37.613207 -122.383180 261 20ft 0kts
15-Apr-18 13:50 37.613207 -122.383180 261 20ft 0kts
15-Apr-18 13:51 37.613207 -122.383180 261 20ft 0kts
15-Apr-18 13:52 37.613207 -122.383180 261 20ft 0kts
15-Apr-18 13:53 37.613207 -122.383180 261 20ft 0kts
15-Apr-18 13:54 37.613207 -122.383180 261 20ft 0kts
15-Apr-18 13:55 37.613207 -122.383180 261 20ft 0kts
15-Apr-18 13:56 37.613207 -122.383180 261 20ft 0kts
15-Apr-18 13:57 37.613207 -122.383180 261 20ft 0kts
15-Apr-18 13:58 37.613207 -122.383180 261 20ft 0kts
15-Apr-18 13:59 37.613207 -122.383180 261 20ft 0kts
15-Apr-18 14:00 37.613207 -122.383180 261 20ft 0kts
15-Apr-18 14:01 37.613207 -122.383180 261 20ft 0kts
15-Apr-18 14:02 37.613207 -122.383180 261 20ft 0kts
15-Apr-18 14:03 37.613207 -122.383180 261 20ft 0kts
15-Apr-18 14:04 37.613207 -122.383180 261 20ft 0kts
15-Apr-18 14:05 37.613207 -122.383180 261 20ft 0kts
15-Apr-18 14:06 37.613207 -122.383180 261 20ft 0kts
15-Apr-18 14:07 37.613207 -122.383180 261 20ft 0kts
15-Apr-18 14:08 37.613207 -122.383180 261 20ft 0kts
15-Apr-18 14:09 37.613207 -122.383180 261 20ft 0kts
15-Apr-18 14:10 37.613346 -122.382595 215 20ft 2kts
15-Apr-18 14:11 37.613663 -122.382715 117 20ft 0kts
15-Apr-18 14:12 37.613663 -122.382715 117 20ft 0kts
15-Apr-18 14:13 37.613663 -122.382715 117 20ft 0kts
15-Apr-18 14:14 37.613663 -122.382715 117 20ft 0kts
15-Apr-18 14:15 37.613663 -122.382715 117 20ft 0kts
15-Apr-18 14:16 37.614007 -122.381376 29 20ft 12kts
15-Apr-18 14:17 37.616650 -122.379523 51 20ft 7kts
15-Apr-18 14:18 37.616564 -122.376667 96 20ft 15kts
15-Apr-18 14:19 37.615793 -122.371740 117 20ft 14kts
15-Apr-18 14:20 37.613390 -122.367084 117 20ft 23kts
15-Apr-18 14:21 37.610535 -122.360157 99 20ft 14kts
15-Apr-18 14:22 37.610983 -122.359008 29 20ft 0kts
15-Apr-18 14:23 37.612154 -122.359324 298 20ft 11kts
15-Apr-18 14:24 37.625134 -122.388912 300 529ft 157kts
15-Apr-18 14:25 37.649089 -122.438031 291 3003ft 172kts
15-Apr-18 14:26 37.665262 -122.506833 249 4555ft 224kts
15-Apr-18 14:27 37.625683 -122.568259 232 7106ft 230kts
15-Apr-18 14:28 37.587893 -122.635651 234 9455ft 239kts
15-Apr-18 14:29 37.548095 -122.706606 219 11578ft 269kts
15-Apr-18 14:30 37.464587 -122.706595 172 13130ft 341kts
15-Apr-18 14:31 37.370786 -122.679822 174 15953ft 351kts
15-Apr-18 14:32 37.273553 -122.653661 176 18543ft 362kts
15-Apr-18 14:33 37.172607 -122.626921 176 20708ft 378kts
15-Apr-18 14:34 37.067407 -122.599370 177 22686ft 392kts
15-Apr-18 14:35 36.958571 -122.570976 177 24427ft 406kts
15-Apr-18 14:36 36.847060 -122.541996 177 26161ft 414kts
15-Apr-18 14:37 36.733023 -122.512424 177 27699ft 421kts
15-Apr-18 14:38 36.617573 -122.482452 178 29066ft 427kts
15-Apr-18 14:39 36.500706 -122.452333 178 30582ft 425kts
15-Apr-18 14:40 36.392317 -122.384812 144 32012ft 475kts
15-Apr-18 14:41 36.305188 -122.261074 141 33439ft 476kts
15-Apr-18 14:42 36.218876 -122.136173 141 34599ft 476kts
15-Apr-18 14:43 36.133110 -122.011473 141 35675ft 476kts
15-Apr-18 14:44 36.047236 -121.887253 141 36674ft 475kts
15-Apr-18 14:45 35.970211 -121.776334 141 37041ft 477kts
15-Apr-18 14:46 35.884178 -121.652890 141 37041ft 475kts
15-Apr-18 14:47 35.797573 -121.529087 141 37030ft 477kts
15-Apr-18 14:48 35.711046 -121.405825 141 37022ft 476kts
15-Apr-18 14:49 35.624611 -121.282781 141 37018ft 476kts
15-Apr-18 14:50 35.537587 -121.159910 140 37023ft 475kts
15-Apr-18 14:51 35.453734 -121.033587 133 37025ft 486kts
15-Apr-18 14:52 35.377302 -120.897095 133 37031ft 485kts
15-Apr-18 14:53 35.300119 -120.761053 133 37043ft 485kts
15-Apr-18 14:54 35.223352 -120.625539 133 37049ft 485kts
15-Apr-18 14:55 35.145866 -120.489646 133 37052ft 486kts
15-Apr-18 14:56 35.068490 -120.354684 133 37052ft 485kts
15-Apr-18 14:57 34.991011 -120.220114 133 37049ft 485kts
15-Apr-18 14:58 34.913144 -120.085410 133 37040ft 484kts
15-Apr-18 14:59 34.835462 -119.951554 133 37030ft 484kts
15-Apr-18 15:00 34.757466 -119.817630 133 37021ft 484kts
15-Apr-18 15:01 34.692587 -119.706620 133 37012ft 484kts
15-Apr-18 15:02 34.614618 -119.573676 133 37027ft 483kts
15-Apr-18 15:03 34.536277 -119.440592 133 37026ft 483kts
15-Apr-18 15:04 34.458216 -119.308473 133 37029ft 483kts
15-Apr-18 15:05 34.379803 -119.176248 133 37026ft 484kts
15-Apr-18 15:06 34.301079 -119.043982 133 37022ft 483kts
15-Apr-18 15:07 34.222368 -118.912218 133 36542ft 483kts
15-Apr-18 15:08 34.143445 -118.780572 133 34631ft 483kts
15-Apr-18 15:09 34.065792 -118.651115 133 32678ft 469kts
15-Apr-18 15:10 33.990238 -118.526189 133 30852ft 454kts
15-Apr-18 15:11 33.915046 -118.406764 139 29096ft 436kts
15-Apr-18 15:12 33.833343 -118.302534 140 27367ft 423kts
15-Apr-18 15:13 33.754007 -118.199685 139 25650ft 415kts
15-Apr-18 15:14 33.676817 -118.098207 138 23956ft 409kts
15-Apr-18 15:15 33.600378 -117.998231 138 22270ft 405kts
15-Apr-18 15:16 33.523347 -117.900497 142 20578ft 398kts
15-Apr-18 15:17 33.443782 -117.809363 141 18911ft 394kts
15-Apr-18 15:18 33.367105 -117.716031 139 17255ft 390kts
15-Apr-18 15:19 33.291687 -117.624368 138 15621ft 384kts
15-Apr-18 15:20 33.210961 -117.545162 149 14160ft 369kts
15-Apr-18 15:21 33.127459 -117.475653 148 12942ft 357kts
15-Apr-18 15:22 33.050041 -117.410959 148 12556ft 324kts
15-Apr-18 15:23 32.980202 -117.352369 149 12073ft 288kts
15-Apr-18 15:24 32.915633 -117.298304 148 10647ft 280kts
15-Apr-18 15:25 32.852681 -117.245981 147 9139ft 273kts
15-Apr-18 15:26 32.804003 -117.180384 109 7618ft 270kts
15-Apr-18 15:27 32.785686 -117.095412 105 6344ft 255kts
15-Apr-18 15:28 32.768626 -117.017616 105 5984ft 240kts
15-Apr-18 15:29 32.751573 -116.939582 105 5677ft 246kts
15-Apr-18 15:30 32.711271 -116.889484 188 5018ft 227kts
15-Apr-18 15:31 32.653807 -116.914884 238 4966ft 224kts
15-Apr-18 15:32 32.669127 -116.981525 306 5027ft 207kts
15-Apr-18 15:33 32.694522 -117.034250 288 4625ft 169kts
15-Apr-18 15:34 32.707497 -117.083084 285 3176ft 145kts
15-Apr-18 15:35 32.719122 -117.130003 283 1447ft 148kts
15-Apr-18 15:36 32.730056 -117.175362 285 160ft 138kts
15-Apr-18 15:37 32.736195 -117.200586 283 23ft 11kts
15-Apr-18 15:38 32.735641 -117.202187 196 23ft 0kts
15-Apr-18 15:39 32.734571 -117.203419 230 23ft 0kts
15-Apr-18 15:40 32.734571 -117.203419 230 23ft 0kts
15-Apr-18 15:41 32.734571 -117.203419 230 23ft 0kts

Navigation Log

Ident Type
Flight plan parsing failed, navigation log unavailable